<?xml version="1.0" encoding="UTF-8" standalone="no" ?>
<gpx xmlns="http://www.topografix.com/GPX/1/1" xmlns:xsi="http://www.w3.org/2001/XMLSchema-instance" xsi:schemaLocation="http://www.topografix.com/GPX/1/1 http://www.topografix.com/GPX/1/1/gpx.xsd" version="1.1" creator="VisuGPX - https://www.visugpx.com">
  <metadata>
    <name>Mailly Merry 4pieux</name>
    <desc><![CDATA[Mailly-le-Château Merry 13km.200m
Parking église Mailly-le-Château ]]></desc>
  </metadata>
  <trk>
    <name><![CDATA[Mailly Merry 4pieux]]></name>
    <extensions>
      <line xmlns="http://www.topografix.com/GPX/gpx_style/0/2">
        <color>0000FF</color>
        <width>4</width>
      </line>
    </extensions>
    <trkseg>
      <trkpt lat="47.59651" lon="3.63774">
        <ele>178</ele>
        <time>2021-08-27T17:03:02+02:00</time>
      </trkpt>
      <trkpt lat="47.59587" lon="3.63771">
        <ele>177</ele>
        <time>2021-08-27T17:03:07+02:00</time>
      </trkpt>
      <trkpt lat="47.59603" lon="3.63707">
        <ele>178</ele>
        <time>2021-08-27T17:03:12+02:00</time>
      </trkpt>
      <trkpt lat="47.59566" lon="3.63682">
        <ele>175</ele>
        <time>2021-08-27T17:03:17+02:00</time>
      </trkpt>
      <trkpt lat="47.59564" lon="3.6365">
        <ele>174</ele>
        <time>2021-08-27T17:03:22+02:00</time>
      </trkpt>
      <trkpt lat="47.59538" lon="3.63641">
        <ele>170</ele>
        <time>2021-08-27T17:03:27+02:00</time>
      </trkpt>
      <trkpt lat="47.59601" lon="3.63474">
        <ele>170</ele>
        <time>2021-08-27T17:03:32+02:00</time>
      </trkpt>
      <trkpt lat="47.59643" lon="3.63451">
        <ele>171</ele>
        <time>2021-08-27T17:03:37+02:00</time>
      </trkpt>
      <trkpt lat="47.5944" lon="3.63285">
        <ele>177</ele>
        <time>2021-08-27T17:03:42+02:00</time>
      </trkpt>
      <trkpt lat="47.59387" lon="3.63342">
        <ele>168</ele>
        <time>2021-08-27T17:03:47+02:00</time>
      </trkpt>
      <trkpt lat="47.59333" lon="3.63272">
        <ele>177</ele>
        <time>2021-08-27T17:03:52+02:00</time>
      </trkpt>
      <trkpt lat="47.59268" lon="3.63231">
        <ele>176</ele>
        <time>2021-08-27T17:03:57+02:00</time>
      </trkpt>
      <trkpt lat="47.59159" lon="3.63203">
        <ele>172</ele>
        <time>2021-08-27T17:04:02+02:00</time>
      </trkpt>
      <trkpt lat="47.59086" lon="3.63217">
        <ele>164</ele>
        <time>2021-08-27T17:04:07+02:00</time>
      </trkpt>
      <trkpt lat="47.58997" lon="3.63243">
        <ele>149</ele>
        <time>2021-08-27T17:04:12+02:00</time>
      </trkpt>
      <trkpt lat="47.58947" lon="3.63278">
        <ele>135</ele>
        <time>2021-08-27T17:04:17+02:00</time>
      </trkpt>
      <trkpt lat="47.58907" lon="3.63336">
        <ele>126</ele>
        <time>2021-08-27T17:04:22+02:00</time>
      </trkpt>
      <trkpt lat="47.58872" lon="3.63333">
        <ele>127</ele>
        <time>2021-08-27T17:04:27+02:00</time>
      </trkpt>
      <trkpt lat="47.58832" lon="3.63338">
        <ele>127</ele>
        <time>2021-08-27T17:04:32+02:00</time>
      </trkpt>
      <trkpt lat="47.58669" lon="3.63523">
        <ele>130</ele>
        <time>2021-08-27T17:04:37+02:00</time>
      </trkpt>
      <trkpt lat="47.58552" lon="3.6354">
        <ele>131</ele>
        <time>2021-08-27T17:04:42+02:00</time>
      </trkpt>
      <trkpt lat="47.58405" lon="3.63636">
        <ele>136</ele>
        <time>2021-08-27T17:04:47+02:00</time>
      </trkpt>
      <trkpt lat="47.58311" lon="3.6367">
        <ele>136</ele>
        <time>2021-08-27T17:04:52+02:00</time>
      </trkpt>
      <trkpt lat="47.58206" lon="3.63687">
        <ele>135</ele>
        <time>2021-08-27T17:04:57+02:00</time>
      </trkpt>
      <trkpt lat="47.58016" lon="3.63852">
        <ele>146</ele>
        <time>2021-08-27T17:05:02+02:00</time>
      </trkpt>
      <trkpt lat="47.57923" lon="3.63717">
        <ele>153</ele>
        <time>2021-08-27T17:05:07+02:00</time>
      </trkpt>
      <trkpt lat="47.57866" lon="3.6366">
        <ele>159</ele>
        <time>2021-08-27T17:05:12+02:00</time>
      </trkpt>
      <trkpt lat="47.5778" lon="3.63653">
        <ele>166</ele>
        <time>2021-08-27T17:05:17+02:00</time>
      </trkpt>
      <trkpt lat="47.57709" lon="3.63653">
        <ele>169</ele>
        <time>2021-08-27T17:05:22+02:00</time>
      </trkpt>
      <trkpt lat="47.57749" lon="3.63761">
        <ele>171</ele>
        <time>2021-08-27T17:05:27+02:00</time>
      </trkpt>
      <trkpt lat="47.57777" lon="3.63863">
        <ele>169</ele>
        <time>2021-08-27T17:05:32+02:00</time>
      </trkpt>
      <trkpt lat="47.5778" lon="3.63939">
        <ele>169</ele>
        <time>2021-08-27T17:05:37+02:00</time>
      </trkpt>
      <trkpt lat="47.57753" lon="3.63946">
        <ele>173</ele>
        <time>2021-08-27T17:05:42+02:00</time>
      </trkpt>
      <trkpt lat="47.57679" lon="3.63889">
        <ele>173</ele>
        <time>2021-08-27T17:05:47+02:00</time>
      </trkpt>
      <trkpt lat="47.57566" lon="3.63796">
        <ele>179</ele>
        <time>2021-08-27T17:05:52+02:00</time>
      </trkpt>
      <trkpt lat="47.57491" lon="3.6372">
        <ele>185</ele>
        <time>2021-08-27T17:05:57+02:00</time>
      </trkpt>
      <trkpt lat="47.57468" lon="3.63693">
        <ele>186</ele>
        <time>2021-08-27T17:06:02+02:00</time>
      </trkpt>
      <trkpt lat="47.5741" lon="3.63573">
        <ele>189</ele>
        <time>2021-08-27T17:06:07+02:00</time>
      </trkpt>
      <trkpt lat="47.57353" lon="3.63549">
        <ele>190</ele>
        <time>2021-08-27T17:06:12+02:00</time>
      </trkpt>
      <trkpt lat="47.57316" lon="3.63514">
        <ele>190</ele>
        <time>2021-08-27T17:06:17+02:00</time>
      </trkpt>
      <trkpt lat="47.57211" lon="3.6341">
        <ele>189</ele>
        <time>2021-08-27T17:06:22+02:00</time>
      </trkpt>
      <trkpt lat="47.57149" lon="3.63393">
        <ele>183</ele>
        <time>2021-08-27T17:06:27+02:00</time>
      </trkpt>
      <trkpt lat="47.57014" lon="3.6333">
        <ele>176</ele>
        <time>2021-08-27T17:06:32+02:00</time>
      </trkpt>
      <trkpt lat="47.56893" lon="3.63274">
        <ele>172</ele>
        <time>2021-08-27T17:06:37+02:00</time>
      </trkpt>
      <trkpt lat="47.56739" lon="3.63339">
        <ele>149</ele>
        <time>2021-08-27T17:06:42+02:00</time>
      </trkpt>
      <trkpt lat="47.5664" lon="3.63385">
        <ele>137</ele>
        <time>2021-08-27T17:06:47+02:00</time>
      </trkpt>
      <trkpt lat="47.56577" lon="3.63381">
        <ele>136</ele>
        <time>2021-08-27T17:06:52+02:00</time>
      </trkpt>
      <trkpt lat="47.56517" lon="3.63347">
        <ele>139</ele>
        <time>2021-08-27T17:06:57+02:00</time>
      </trkpt>
      <trkpt lat="47.56538" lon="3.63434">
        <ele>137</ele>
        <time>2021-08-27T17:07:02+02:00</time>
      </trkpt>
      <trkpt lat="47.56564" lon="3.63483">
        <ele>131</ele>
        <time>2021-08-27T17:07:07+02:00</time>
      </trkpt>
      <trkpt lat="47.56496" lon="3.63576">
        <ele>133</ele>
        <time>2021-08-27T17:07:12+02:00</time>
      </trkpt>
      <trkpt lat="47.56409" lon="3.63767">
        <ele>137</ele>
        <time>2021-08-27T17:07:17+02:00</time>
      </trkpt>
      <trkpt lat="47.56355" lon="3.64009">
        <ele>132</ele>
        <time>2021-08-27T17:07:22+02:00</time>
      </trkpt>
      <trkpt lat="47.56319" lon="3.64152">
        <ele>132</ele>
        <time>2021-08-27T17:07:27+02:00</time>
      </trkpt>
      <trkpt lat="47.56401" lon="3.64192">
        <ele>128</ele>
        <time>2021-08-27T17:07:32+02:00</time>
      </trkpt>
      <trkpt lat="47.56459" lon="3.64144">
        <ele>127</ele>
        <time>2021-08-27T17:07:37+02:00</time>
      </trkpt>
      <trkpt lat="47.56586" lon="3.64124">
        <ele>127</ele>
        <time>2021-08-27T17:07:42+02:00</time>
      </trkpt>
      <trkpt lat="47.56641" lon="3.64143">
        <ele>133</ele>
        <time>2021-08-27T17:07:47+02:00</time>
      </trkpt>
      <trkpt lat="47.5665" lon="3.64086">
        <ele>131</ele>
        <time>2021-08-27T17:07:52+02:00</time>
      </trkpt>
      <trkpt lat="47.56679" lon="3.6402">
        <ele>127</ele>
        <time>2021-08-27T17:07:57+02:00</time>
      </trkpt>
      <trkpt lat="47.56707" lon="3.64026">
        <ele>128</ele>
        <time>2021-08-27T17:08:02+02:00</time>
      </trkpt>
      <trkpt lat="47.56685" lon="3.64096">
        <ele>133</ele>
        <time>2021-08-27T17:08:07+02:00</time>
      </trkpt>
      <trkpt lat="47.56665" lon="3.64192">
        <ele>138</ele>
        <time>2021-08-27T17:08:12+02:00</time>
      </trkpt>
      <trkpt lat="47.56655" lon="3.64331">
        <ele>143</ele>
        <time>2021-08-27T17:08:17+02:00</time>
      </trkpt>
      <trkpt lat="47.56665" lon="3.64415">
        <ele>150</ele>
        <time>2021-08-27T17:08:22+02:00</time>
      </trkpt>
      <trkpt lat="47.56679" lon="3.64524">
        <ele>155</ele>
        <time>2021-08-27T17:08:27+02:00</time>
      </trkpt>
      <trkpt lat="47.56657" lon="3.64636">
        <ele>156</ele>
        <time>2021-08-27T17:08:32+02:00</time>
      </trkpt>
      <trkpt lat="47.56662" lon="3.64739">
        <ele>162</ele>
        <time>2021-08-27T17:08:37+02:00</time>
      </trkpt>
      <trkpt lat="47.5666" lon="3.64913">
        <ele>169</ele>
        <time>2021-08-27T17:08:42+02:00</time>
      </trkpt>
      <trkpt lat="47.56629" lon="3.65024">
        <ele>165</ele>
        <time>2021-08-27T17:08:47+02:00</time>
      </trkpt>
      <trkpt lat="47.56532" lon="3.65383">
        <ele>178</ele>
        <time>2021-08-27T17:08:52+02:00</time>
      </trkpt>
      <trkpt lat="47.56515" lon="3.65552">
        <ele>181</ele>
        <time>2021-08-27T17:08:57+02:00</time>
      </trkpt>
      <trkpt lat="47.56485" lon="3.65741">
        <ele>181</ele>
        <time>2021-08-27T17:09:02+02:00</time>
      </trkpt>
      <trkpt lat="47.56363" lon="3.66075">
        <ele>189</ele>
        <time>2021-08-27T17:09:07+02:00</time>
      </trkpt>
      <trkpt lat="47.56442" lon="3.66223">
        <ele>191</ele>
        <time>2021-08-27T17:09:12+02:00</time>
      </trkpt>
      <trkpt lat="47.56569" lon="3.66382">
        <ele>191</ele>
        <time>2021-08-27T17:09:17+02:00</time>
      </trkpt>
      <trkpt lat="47.56645" lon="3.66278">
        <ele>185</ele>
        <time>2021-08-27T17:09:22+02:00</time>
      </trkpt>
      <trkpt lat="47.56766" lon="3.66015">
        <ele>178</ele>
        <time>2021-08-27T17:09:27+02:00</time>
      </trkpt>
      <trkpt lat="47.56828" lon="3.65855">
        <ele>176</ele>
        <time>2021-08-27T17:09:32+02:00</time>
      </trkpt>
      <trkpt lat="47.57" lon="3.65912">
        <ele>168</ele>
        <time>2021-08-27T17:09:37+02:00</time>
      </trkpt>
      <trkpt lat="47.57081" lon="3.65932">
        <ele>164</ele>
        <time>2021-08-27T17:09:42+02:00</time>
      </trkpt>
      <trkpt lat="47.57102" lon="3.66048">
        <ele>160</ele>
        <time>2021-08-27T17:09:47+02:00</time>
      </trkpt>
      <trkpt lat="47.57115" lon="3.66068">
        <ele>158</ele>
        <time>2021-08-27T17:09:52+02:00</time>
      </trkpt>
      <trkpt lat="47.57148" lon="3.6603">
        <ele>155</ele>
        <time>2021-08-27T17:09:57+02:00</time>
      </trkpt>
      <trkpt lat="47.57172" lon="3.66049">
        <ele>152</ele>
        <time>2021-08-27T17:10:02+02:00</time>
      </trkpt>
      <trkpt lat="47.57158" lon="3.6596">
        <ele>154</ele>
        <time>2021-08-27T17:10:07+02:00</time>
      </trkpt>
      <trkpt lat="47.57157" lon="3.65855">
        <ele>155</ele>
        <time>2021-08-27T17:10:12+02:00</time>
      </trkpt>
      <trkpt lat="47.572" lon="3.65791">
        <ele>156</ele>
        <time>2021-08-27T17:10:17+02:00</time>
      </trkpt>
      <trkpt lat="47.57248" lon="3.65748">
        <ele>151</ele>
        <time>2021-08-27T17:10:22+02:00</time>
      </trkpt>
      <trkpt lat="47.57283" lon="3.65716">
        <ele>158</ele>
        <time>2021-08-27T17:10:27+02:00</time>
      </trkpt>
      <trkpt lat="47.57312" lon="3.65586">
        <ele>157</ele>
        <time>2021-08-27T17:10:32+02:00</time>
      </trkpt>
      <trkpt lat="47.57365" lon="3.65474">
        <ele>154</ele>
        <time>2021-08-27T17:10:37+02:00</time>
      </trkpt>
      <trkpt lat="47.57441" lon="3.65389">
        <ele>151</ele>
        <time>2021-08-27T17:10:42+02:00</time>
      </trkpt>
      <trkpt lat="47.57484" lon="3.65333">
        <ele>149</ele>
        <time>2021-08-27T17:10:47+02:00</time>
      </trkpt>
      <trkpt lat="47.5751" lon="3.65223">
        <ele>142</ele>
        <time>2021-08-27T17:10:52+02:00</time>
      </trkpt>
      <trkpt lat="47.57561" lon="3.65133">
        <ele>139</ele>
        <time>2021-08-27T17:10:57+02:00</time>
      </trkpt>
      <trkpt lat="47.57593" lon="3.65098">
        <ele>134</ele>
        <time>2021-08-27T17:11:02+02:00</time>
      </trkpt>
      <trkpt lat="47.57632" lon="3.65097">
        <ele>133</ele>
        <time>2021-08-27T17:11:07+02:00</time>
      </trkpt>
      <trkpt lat="47.57772" lon="3.651">
        <ele>132</ele>
        <time>2021-08-27T17:11:12+02:00</time>
      </trkpt>
      <trkpt lat="47.57815" lon="3.65091">
        <ele>134</ele>
        <time>2021-08-27T17:11:17+02:00</time>
      </trkpt>
      <trkpt lat="47.5788" lon="3.65018">
        <ele>138</ele>
        <time>2021-08-27T17:11:22+02:00</time>
      </trkpt>
      <trkpt lat="47.57951" lon="3.64938">
        <ele>136</ele>
        <time>2021-08-27T17:11:27+02:00</time>
      </trkpt>
      <trkpt lat="47.58037" lon="3.64856">
        <ele>135</ele>
        <time>2021-08-27T17:11:32+02:00</time>
      </trkpt>
      <trkpt lat="47.5811" lon="3.64786">
        <ele>134</ele>
        <time>2021-08-27T17:11:37+02:00</time>
      </trkpt>
      <trkpt lat="47.58138" lon="3.6489">
        <ele>149</ele>
        <time>2021-08-27T17:11:42+02:00</time>
      </trkpt>
      <trkpt lat="47.58168" lon="3.64893">
        <ele>151</ele>
        <time>2021-08-27T17:11:47+02:00</time>
      </trkpt>
      <trkpt lat="47.58163" lon="3.64831">
        <ele>146</ele>
        <time>2021-08-27T17:11:52+02:00</time>
      </trkpt>
      <trkpt lat="47.58176" lon="3.64785">
        <ele>142</ele>
        <time>2021-08-27T17:11:57+02:00</time>
      </trkpt>
      <trkpt lat="47.58241" lon="3.64767">
        <ele>152</ele>
        <time>2021-08-27T17:12:02+02:00</time>
      </trkpt>
      <trkpt lat="47.58289" lon="3.64742">
        <ele>155</ele>
        <time>2021-08-27T17:12:07+02:00</time>
      </trkpt>
      <trkpt lat="47.58326" lon="3.64708">
        <ele>156</ele>
        <time>2021-08-27T17:12:12+02:00</time>
      </trkpt>
      <trkpt lat="47.58348" lon="3.64653">
        <ele>152</ele>
        <time>2021-08-27T17:12:17+02:00</time>
      </trkpt>
      <trkpt lat="47.58383" lon="3.64605">
        <ele>152</ele>
        <time>2021-08-27T17:12:22+02:00</time>
      </trkpt>
      <trkpt lat="47.58435" lon="3.64604">
        <ele>160</ele>
        <time>2021-08-27T17:12:27+02:00</time>
      </trkpt>
      <trkpt lat="47.58438" lon="3.64556">
        <ele>154</ele>
        <time>2021-08-27T17:12:32+02:00</time>
      </trkpt>
      <trkpt lat="47.58432" lon="3.64511">
        <ele>147</ele>
        <time>2021-08-27T17:12:37+02:00</time>
      </trkpt>
      <trkpt lat="47.58475" lon="3.64487">
        <ele>153</ele>
        <time>2021-08-27T17:12:42+02:00</time>
      </trkpt>
      <trkpt lat="47.58483" lon="3.64436">
        <ele>147</ele>
        <time>2021-08-27T17:12:47+02:00</time>
      </trkpt>
      <trkpt lat="47.58513" lon="3.6442">
        <ele>150</ele>
        <time>2021-08-27T17:12:52+02:00</time>
      </trkpt>
      <trkpt lat="47.58551" lon="3.64377">
        <ele>149</ele>
        <time>2021-08-27T17:12:57+02:00</time>
      </trkpt>
      <trkpt lat="47.58593" lon="3.64362">
        <ele>152</ele>
        <time>2021-08-27T17:13:02+02:00</time>
      </trkpt>
      <trkpt lat="47.58647" lon="3.64321">
        <ele>147</ele>
        <time>2021-08-27T17:13:07+02:00</time>
      </trkpt>
      <trkpt lat="47.58686" lon="3.64305">
        <ele>143</ele>
        <time>2021-08-27T17:13:12+02:00</time>
      </trkpt>
      <trkpt lat="47.58715" lon="3.64266">
        <ele>138</ele>
        <time>2021-08-27T17:13:17+02:00</time>
      </trkpt>
      <trkpt lat="47.58724" lon="3.64199">
        <ele>134</ele>
        <time>2021-08-27T17:13:22+02:00</time>
      </trkpt>
      <trkpt lat="47.58754" lon="3.64181">
        <ele>133</ele>
        <time>2021-08-27T17:13:27+02:00</time>
      </trkpt>
      <trkpt lat="47.58791" lon="3.64139">
        <ele>132</ele>
        <time>2021-08-27T17:13:32+02:00</time>
      </trkpt>
      <trkpt lat="47.58866" lon="3.64053">
        <ele>130</ele>
        <time>2021-08-27T17:13:37+02:00</time>
      </trkpt>
      <trkpt lat="47.58916" lon="3.63964">
        <ele>130</ele>
        <time>2021-08-27T17:13:42+02:00</time>
      </trkpt>
      <trkpt lat="47.58948" lon="3.63868">
        <ele>127</ele>
        <time>2021-08-27T17:13:47+02:00</time>
      </trkpt>
      <trkpt lat="47.59029" lon="3.63766">
        <ele>126</ele>
        <time>2021-08-27T17:13:52+02:00</time>
      </trkpt>
      <trkpt lat="47.59132" lon="3.63715">
        <ele>123</ele>
        <time>2021-08-27T17:13:57+02:00</time>
      </trkpt>
      <trkpt lat="47.59184" lon="3.6372">
        <ele>122</ele>
        <time>2021-08-27T17:14:02+02:00</time>
      </trkpt>
      <trkpt lat="47.59235" lon="3.6368">
        <ele>121</ele>
        <time>2021-08-27T17:14:07+02:00</time>
      </trkpt>
      <trkpt lat="47.59277" lon="3.63659">
        <ele>122</ele>
        <time>2021-08-27T17:14:12+02:00</time>
      </trkpt>
      <trkpt lat="47.59344" lon="3.63605">
        <ele>124</ele>
        <time>2021-08-27T17:14:17+02:00</time>
      </trkpt>
      <trkpt lat="47.59383" lon="3.63558">
        <ele>129</ele>
        <time>2021-08-27T17:14:22+02:00</time>
      </trkpt>
      <trkpt lat="47.59406" lon="3.63541">
        <ele>131</ele>
        <time>2021-08-27T17:14:27+02:00</time>
      </trkpt>
      <trkpt lat="47.59435" lon="3.63509">
        <ele>137</ele>
        <time>2021-08-27T17:14:32+02:00</time>
      </trkpt>
      <trkpt lat="47.5945" lon="3.63548">
        <ele>144</ele>
        <time>2021-08-27T17:14:37+02:00</time>
      </trkpt>
      <trkpt lat="47.5946" lon="3.63601">
        <ele>150</ele>
        <time>2021-08-27T17:14:42+02:00</time>
      </trkpt>
      <trkpt lat="47.59459" lon="3.63638">
        <ele>150</ele>
        <time>2021-08-27T17:14:47+02:00</time>
      </trkpt>
      <trkpt lat="47.59485" lon="3.63703">
        <ele>158</ele>
        <time>2021-08-27T17:14:52+02:00</time>
      </trkpt>
      <trkpt lat="47.59505" lon="3.63727">
        <ele>164</ele>
        <time>2021-08-27T17:14:57+02:00</time>
      </trkpt>
      <trkpt lat="47.59526" lon="3.6371">
        <ele>168</ele>
        <time>2021-08-27T17:15:02+02:00</time>
      </trkpt>
      <trkpt lat="47.59569" lon="3.63779">
        <ele>173</ele>
        <time>2021-08-27T17:15:07+02:00</time>
      </trkpt>
      <trkpt lat="47.59634" lon="3.63874">
        <ele>174</ele>
        <time>2021-08-27T17:15:12+02:00</time>
      </trkpt>
      <trkpt lat="47.59647" lon="3.63841">
        <ele>176</ele>
        <time>2021-08-27T17:15:17+02:00</time>
      </trkpt>
      <trkpt lat="47.59656" lon="3.63794">
        <ele>178</ele>
        <time>2021-08-27T17:15:22+02:00</time>
      </trkpt>
      <trkpt lat="47.59656" lon="3.63777">
        <ele>178</ele>
        <time>2021-08-27T17:15:27+02:00</time>
      </trkpt>
    </trkseg>
  </trk>
</gpx>